Maryland METAR Reports


Distance/Direction noted is from Ellicott City, MD as the crow flies

KCBE - Cumberland - 118 miles WNW
Updated: Wed, 08/20/2014 8:33 AM
Overcast
Overcast
 Wind from calm
Wind: Calm
Temperature: 70°F
Dew Point: 70°F
Humidity: 100%
Barometer: 30.00 inHg
Clouds: Overcast
Visibility: 2 miles
Cloud Details: Overcast 100 ft
2014/08/20 12:33 KCBE 201233Z AUTO 00000KT 2SM OVC001 21/21 A3000 RMK AO1
KHGR - Hagerstown - 57 miles NW
Updated: Wed, 08/20/2014 7:53 AM
Mist, Overcast
Mist, Overcast
 Wind from SSE
Wind: SSE 8 mph
Temperature: 72°F
Dew Point: 68°F
Humidity: 88%
Barometer: 29.96 inHg
Summary: Mist
Clouds: Overcast
Visibility: 6 miles
Cloud Details: Overcast 700 ft
2014/08/20 11:53 KHGR 201153Z 15007KT 6SM BR OVC007 22/20 A2996 RMK AO2 SLP149 T02170200 10233 20206 51014
 
KFDK - Frederick - 34 miles NW
Updated: Wed, 08/20/2014 7:50 AM
Overcast
Overcast
 Wind from calm
Wind: Calm
Temperature: 72°F
Dew Point: 70°F
Humidity: 94%
Barometer: 29.99 inHg
Clouds: Overcast
Visibility: 10 miles
Cloud Details: Mostly Cloudy 1300 ft
Overcast 3100 ft
2014/08/20 11:50 KFDK 201150Z 00000KT 10SM BKN013 OVC031 22/21 A2999
KGAI - Gaithersburg - 26 miles SW
Updated: Wed, 08/20/2014 8:35 AM
Overcast
Overcast
 Wind from SE
Wind: SE 6 mph
Temperature: 70°F
Dew Point: 64°F
Humidity: 83%
Barometer: 30.02 inHg
Clouds: Overcast
Visibility: 10 miles
Cloud Details: Overcast 7000 ft
2014/08/20 12:35 KGAI 201235Z AUTO 13005KT 10SM OVC070 21/18 A3002 RMK AO1
 
KBWI - BWI Airport - 15 miles SE
Updated: Wed, 08/20/2014 7:54 AM
Mostly Cloudy
Mostly Cloudy
 Wind from calm
Wind: Calm
Temperature: 70°F
Dew Point: 64°F
Humidity: 83%
Barometer: 29.97 inHg
Clouds: Mostly Cloudy
Visibility: 10 miles
Cloud Details: Mostly Cloudy 8500 ft
Mostly Cloudy 11000 ft
Mostly Cloudy 18000 ft
Mostly Cloudy 25000 ft
2014/08/20 11:54 KBWI 201154Z 00000KT 10SM BKN085 BKN110 BKN180 BKN250 21/18 A2997 RMK AO2 SLP148 T02110183 10211 20178 53016
KNAK - Annapolis - 32 miles SSE
Updated: Wed, 08/20/2014 7:54 AM
Partly Cloudy
Partly Cloudy
 Wind from SE
Wind: SE 8 mph
Temperature: 73°F
Dew Point: 66°F
Humidity: 78%
Barometer: 29.97 inHg
Clouds: Partly Cloudy
Visibility: 10 miles
Cloud Details: Partly Cloudy 11000 ft
2014/08/20 11:54 KNAK 201154Z AUTO 14007KT 10SM SCT110 23/19 A2997 RMK AO2 SLP150 T02330189 10233 20200 51018
 
KESN - Easton - 63 miles SE
Updated: Wed, 08/20/2014 7:50 AM
Mostly Cloudy
Mostly Cloudy
 Wind from calm
Wind: Calm
Temperature: 68°F
Dew Point: 68°F
Humidity: 100%
Barometer: 30.00 inHg
Clouds: Mostly Cloudy
Visibility: 7 miles
Cloud Details: Mostly Cloudy 12000 ft
2014/08/20 11:50 KESN 201150Z 00000KT 7SM BKN120 20/20 A3000
KSBY - Salisbury - 112 miles SE
Updated: Wed, 08/20/2014 7:54 AM
Clear
Clear
 Wind from calm
Wind: Calm
Temperature: 72°F
Dew Point: 64°F
Humidity: 78%
Barometer: 29.97 inHg
Clouds: Clear
Visibility: 10 miles
2014/08/20 11:54 KSBY 201154Z 00000KT 10SM CLR 22/18 A2997 RMK AO2 SLP151 T02220183 10222 20172 53018